Time;durP1;ratioP1;P1;durP2;ratioP2;P2;SDS_P1;SDS_P2;PMS_P1;PMS_P2;Temp;Humidity;BMP_temperature;BMP_pressure;BME280_temperature;BME280_humidity;BME280_pressure;Samples;Min_cycle;Max_cycle;Signal;HPM_P1;HPM_P2
2023/10/29 00:00:38;;;;;;;2.30;2.10;;;23.30;67.00;;;;;;5009726;28;20453;-81
2023/10/29 00:03:07;;;;;;;2.40;2.20;;;23.30;67.00;;;;;;5013899;28;20510;-81
2023/10/29 00:05:35;;;;;;;2.57;2.37;;;23.30;67.00;;;;;;5030121;28;20431;-82
2023/10/29 00:08:04;;;;;;;2.50;2.30;;;23.30;67.00;;;;;;5028363;28;20481;-81
2023/10/29 00:10:32;;;;;;;3.00;2.80;;;23.30;67.00;;;;;;5001630;28;20465;-82
2023/10/29 00:13:01;;;;;;;3.07;2.87;;;23.30;67.00;;;;;;5004501;28;20462;-81
2023/10/29 00:15:31;;;;;;;2.50;2.30;;;23.20;67.00;;;;;;5003740;28;20507;-82
2023/10/29 00:18:00;;;;;;;2.87;2.67;;;23.30;67.00;;;;;;4997667;28;20466;-81
2023/10/29 00:20:28;;;;;;;3.23;3.03;;;23.20;67.00;;;;;;5005660;28;20492;-81
2023/10/29 00:22:56;;;;;;;2.90;2.70;;;23.30;66.90;;;;;;5021965;28;20466;-81
2023/10/29 00:25:25;;;;;;;3.20;2.90;;;23.20;67.00;;;;;;5014012;28;20464;-81
2023/10/29 00:27:53;;;;;;;2.50;2.30;;;23.20;67.00;;;;;;5009005;28;20527;-82
2023/10/29 00:30:21;;;;;;;3.17;2.90;;;23.20;67.00;;;;;;5009725;28;20456;-81
2023/10/29 00:32:51;;;;;;;3.27;2.97;;;23.20;66.90;;;;;;5009234;28;20508;-81
2023/10/29 00:35:20;;;;;;;2.80;2.60;;;23.20;67.00;;;;;;5009281;28;20454;-81
2023/10/29 00:37:49;;;;;;;2.87;2.57;;;23.20;67.00;;;;;;5008769;28;20442;-82
2023/10/29 00:40:17;;;;;;;4.20;2.80;;;23.20;66.90;;;;;;5005794;28;20480;-81
2023/10/29 00:42:45;;;;;;;2.80;2.60;;;23.20;67.00;;;;;;5008020;28;20461;-81
2023/10/29 00:45:13;;;;;;;3.00;2.80;;;23.20;66.90;;;;;;5008954;28;20454;-81
2023/10/29 00:47:42;;;;;;;4.23;3.23;;;23.20;66.90;;;;;;5009649;28;21005;-81
2023/10/29 00:50:13;;;;;;;2.77;2.57;;;23.20;66.90;;;;;;5029153;28;20459;-81
2023/10/29 00:52:41;;;;;;;2.90;2.60;;;23.20;66.90;;;;;;5011300;28;20793;-81
2023/10/29 00:55:10;;;;;;;2.73;2.50;;;23.20;66.90;;;;;;5014309;28;20859;-81
2023/10/29 00:57:39;;;;;;;2.97;2.77;;;23.20;66.90;;;;;;5005930;28;20567;-81
2023/10/29 01:00:09;;;;;;;3.40;2.57;;;23.20;66.90;;;;;;5008729;28;20498;-81
2023/10/29 01:02:37;;;;;;;4.20;2.50;;;23.20;66.90;;;;;;5020592;28;20450;-81
2023/10/29 01:05:06;;;;;;;3.33;2.40;;;23.20;66.90;;;;;;5013248;28;20903;-81
2023/10/29 01:07:37;;;;;;;2.90;2.70;;;23.20;66.90;;;;;;5011933;28;20787;-81
2023/10/29 01:10:06;;;;;;;3.23;2.97;;;23.20;66.90;;;;;;5008556;28;20515;-82
2023/10/29 01:12:34;;;;;;;3.17;2.73;;;23.20;66.90;;;;;;5009224;28;20465;-81
2023/10/29 01:15:03;;;;;;;2.67;2.47;;;23.20;66.90;;;;;;5010269;28;20475;-82
2023/10/29 01:17:31;;;;;;;3.07;2.80;;;23.20;66.90;;;;;;5012536;28;20430;-81
2023/10/29 01:19:59;;;;;;;3.80;3.40;;;23.20;66.90;;;;;;5032240;28;20498;-81
2023/10/29 01:22:28;;;;;;;3.53;2.93;;;23.20;66.90;;;;;;5032735;28;20433;-81
2023/10/29 01:24:58;;;;;;;3.00;2.70;;;23.20;66.90;;;;;;5030700;28;20471;-82
2023/10/29 01:27:26;;;;;;;2.53;2.33;;;23.20;66.90;;;;;;5007771;28;20472;-82
2023/10/29 01:29:55;;;;;;;3.27;2.97;;;23.20;66.90;;;;;;5012121;28;20816;-81
2023/10/29 01:32:23;;;;;;;3.00;2.77;;;23.20;66.90;;;;;;5012406;28;20486;-81
2023/10/29 01:34:51;;;;;;;3.37;3.07;;;23.20;66.90;;;;;;5013007;28;20863;-81
2023/10/29 01:37:19;;;;;;;3.07;2.83;;;23.20;66.90;;;;;;5012535;28;20430;-80
2023/10/29 01:39:48;;;;;;;3.03;2.83;;;23.20;66.90;;;;;;5015265;28;20680;-80
2023/10/29 01:42:17;;;;;;;2.80;2.60;;;23.20;66.90;;;;;;5010687;28;20511;-81
2023/10/29 01:44:45;;;;;;;2.47;2.33;;;23.20;66.90;;;;;;5011455;28;20465;-82
2023/10/29 01:47:14;;;;;;;3.20;2.90;;;23.20;66.90;;;;;;5011662;28;20454;-81
2023/10/29 01:49:42;;;;;;;2.97;2.77;;;23.20;66.90;;;;;;5028819;28;20441;-81
2023/10/29 01:52:11;;;;;;;4.10;2.83;;;23.20;66.90;;;;;;5029147;28;20439;-81
2023/10/29 01:54:39;;;;;;;2.70;2.50;;;23.20;66.90;;;;;;5014089;28;20959;-81
2023/10/29 01:57:07;;;;;;;2.90;2.60;;;23.20;66.90;;;;;;5012058;28;20480;-81
2023/10/29 01:59:37;;;;;;;3.03;2.83;;;23.10;66.90;;;;;;5020627;28;20494;-81
2023/10/29 02:02:05;;;;;;;2.67;2.47;;;23.10;66.90;;;;;;5009813;28;20460;-81
2023/10/29 02:04:33;;;;;;;2.97;2.77;;;23.10;66.90;;;;;;5010017;28;20511;-81
2023/10/29 02:07:02;;;;;;;2.80;2.60;;;23.10;66.90;;;;;;5012590;28;20439;-81
2023/10/29 02:09:31;;;;;;;3.63;3.07;;;23.10;66.90;;;;;;5016004;28;20461;-81
2023/10/29 02:11:59;;;;;;;3.00;2.60;;;23.10;66.90;;;;;;5010408;28;20812;-81
2023/10/29 02:14:28;;;;;;;3.20;2.50;;;23.10;66.90;;;;;;5011142;28;20485;-81
2023/10/29 02:16:58;;;;;;;2.87;2.67;;;23.10;66.90;;;;;;5008174;28;20503;-82
2023/10/29 02:19:26;;;;;;;2.63;2.43;;;23.10;66.90;;;;;;5023262;28;20452;-81
2023/10/29 02:21:56;;;;;;;2.90;2.70;;;23.10;66.90;;;;;;5010862;28;20519;-81
2023/10/29 02:24:24;;;;;;;3.00;2.50;;;23.10;66.90;;;;;;5008620;28;21030;-82
2023/10/29 02:26:53;;;;;;;2.60;2.40;;;23.10;66.90;;;;;;5009040;28;20464;-81
2023/10/29 02:29:21;;;;;;;2.90;2.70;;;23.10;66.90;;;;;;5018184;28;20458;-81
2023/10/29 02:31:50;;;;;;;2.70;2.50;;;23.10;66.90;;;;;;5028104;28;20479;-81
2023/10/29 02:34:18;;;;;;;2.67;2.47;;;23.10;66.90;;;;;;5017267;28;20464;-81
2023/10/29 02:36:47;;;;;;;2.80;2.50;;;23.10;66.90;;;;;;5011174;28;20456;-81
2023/10/29 02:39:17;;;;;;;2.57;2.37;;;23.10;66.90;;;;;;5012180;28;20467;-81
2023/10/29 02:41:45;;;;;;;3.13;2.10;;;23.10;67.00;;;;;;5011658;28;21130;-81
2023/10/29 02:44:14;;;;;;;2.80;2.60;;;23.10;67.00;;;;;;5010029;28;20449;-81
2023/10/29 02:46:42;;;;;;;2.87;2.67;;;23.10;67.00;;;;;;5010576;28;20442;-82
2023/10/29 02:49:12;;;;;;;3.40;3.20;;;23.00;67.00;;;;;;5021848;28;20823;-81
2023/10/29 02:51:41;;;;;;;2.30;2.10;;;23.00;67.00;;;;;;5008756;28;20464;-81
2023/10/29 02:54:09;;;;;;;2.90;2.60;;;23.00;67.00;;;;;;4994961;28;20942;-81
2023/10/29 02:56:40;;;;;;;2.50;2.30;;;23.00;67.00;;;;;;5009754;28;20463;-81
2023/10/29 02:59:09;;;;;;;2.70;2.50;;;23.00;67.00;;;;;;5007816;28;20450;-81
2023/10/29 03:01:37;;;;;;;2.70;2.50;;;23.00;67.00;;;;;;5009016;28;20476;-81
2023/10/29 03:04:06;;;;;;;2.93;2.73;;;23.00;67.00;;;;;;5011347;28;20660;-81
2023/10/29 03:06:36;;;;;;;2.67;2.40;;;23.00;67.00;;;;;;5015667;28;20475;-81
2023/10/29 03:09:05;;;;;;;2.47;2.37;;;23.00;67.00;;;;;;5010274;28;20848;-81
2023/10/29 03:11:33;;;;;;;2.53;2.33;;;23.00;67.10;;;;;;4999792;28;20953;-81
2023/10/29 03:14:02;;;;;;;3.03;2.80;;;23.00;67.10;;;;;;5002589;28;20675;-81
2023/10/29 03:16:31;;;;;;;2.63;2.43;;;23.00;67.10;;;;;;5010501;28;20837;-81
2023/10/29 03:18:59;;;;;;;3.30;3.00;;;23.00;67.10;;;;;;5010977;28;20487;-81
2023/10/29 03:21:27;;;;;;;2.80;2.60;;;23.00;67.00;;;;;;5009704;28;20479;-81
2023/10/29 03:23:55;;;;;;;3.03;2.27;;;22.90;67.10;;;;;;5007834;28;20448;-81
2023/10/29 03:26:24;;;;;;;2.97;2.77;;;22.90;67.10;;;;;;5029709;28;20450;-81
2023/10/29 03:28:52;;;;;;;2.67;2.30;;;22.90;67.10;;;;;;5021489;28;20506;-82
2023/10/29 03:31:23;;;;;;;2.80;2.60;;;22.90;67.10;;;;;;5009020;28;20843;-81
2023/10/29 03:33:51;;;;;;;2.50;2.30;;;22.90;67.10;;;;;;5009290;28;20945;-81
2023/10/29 03:36:20;;;;;;;2.70;2.50;;;22.90;67.10;;;;;;5009690;28;20531;-81
2023/10/29 03:38:49;;;;;;;2.63;2.43;;;22.90;67.10;;;;;;5011320;28;20484;-81
2023/10/29 03:41:22;;;;;;;2.33;2.13;;;22.90;67.10;;;;;;4990734;28;20488;-81
2023/10/29 03:43:50;;;;;;;3.17;2.87;;;22.90;67.10;;;;;;5016183;28;20891;-81
2023/10/29 03:46:19;;;;;;;2.37;2.27;;;22.90;67.10;;;;;;5028390;28;20458;-81
2023/10/29 03:48:49;;;;;;;2.47;2.27;;;22.90;67.10;;;;;;5021148;28;20457;-82
2023/10/29 03:51:17;;;;;;;2.57;2.37;;;22.90;67.10;;;;;;5009841;28;20511;-81
2023/10/29 03:53:46;;;;;;;3.07;2.77;;;22.90;67.10;;;;;;5008375;28;20463;-81
2023/10/29 03:56:14;;;;;;;2.43;2.23;;;22.90;67.10;;;;;;5007356;28;20809;-81
2023/10/29 03:58:43;;;;;;;2.90;2.70;;;22.90;67.10;;;;;;5010580;28;20507;-81
2023/10/29 04:01:13;;;;;;;2.70;2.50;;;22.90;67.10;;;;;;5010030;28;20470;-81
2023/10/29 04:03:43;;;;;;;2.53;2.33;;;22.80;67.20;;;;;;5012350;28;20491;-81
2023/10/29 04:06:13;;;;;;;2.80;2.60;;;22.80;67.10;;;;;;5009218;28;21002;-81
2023/10/29 04:08:41;;;;;;;2.80;2.60;;;22.80;67.20;;;;;;5010354;28;20864;-81
2023/10/29 04:11:10;;;;;;;2.50;2.30;;;22.80;67.20;;;;;;5001883;28;20597;-81
2023/10/29 04:13:39;;;;;;;3.03;2.20;;;22.80;67.20;;;;;;4992464;28;20450;-81
2023/10/29 04:16:08;;;;;;;2.83;2.63;;;22.80;67.20;;;;;;4999372;28;20456;-81
2023/10/29 04:18:36;;;;;;;2.60;2.40;;;22.80;67.20;;;;;;5009275;28;20472;-81
2023/10/29 04:21:06;;;;;;;2.50;2.30;;;22.80;67.20;;;;;;5011306;28;20482;-81
2023/10/29 04:23:36;;;;;;;3.07;2.77;;;22.80;67.20;;;;;;5024771;28;20461;-81
2023/10/29 04:26:04;;;;;;;2.60;2.40;;;22.80;67.20;;;;;;5013876;28;20459;-81
2023/10/29 04:28:33;;;;;;;2.77;2.57;;;22.80;67.20;;;;;;5011125;28;20818;-81
2023/10/29 04:31:01;;;;;;;2.87;2.40;;;22.80;67.20;;;;;;5015963;28;20494;-81
2023/10/29 04:33:30;;;;;;;2.67;2.47;;;22.80;67.20;;;;;;5010213;28;20480;-81
2023/10/29 04:35:58;;;;;;;2.83;2.63;;;22.80;67.20;;;;;;5013365;28;20839;-81
2023/10/29 04:38:26;;;;;;;2.57;2.37;;;22.80;67.20;;;;;;5014282;28;20452;-81
2023/10/29 04:40:56;;;;;;;2.60;2.40;;;22.80;67.20;;;;;;5013552;28;20436;-82
2023/10/29 04:43:24;;;;;;;2.47;2.30;;;22.70;67.20;;;;;;5013411;28;20457;-81
2023/10/29 04:45:52;;;;;;;2.30;2.10;;;22.70;67.20;;;;;;4997023;28;20469;-81
2023/10/29 04:48:22;;;;;;;2.17;2.07;;;22.70;67.20;;;;;;5002667;28;20979;-81
2023/10/29 04:50:50;;;;;;;3.00;2.80;;;22.70;67.20;;;;;;5008264;28;20467;-81
2023/10/29 04:53:19;;;;;;;2.87;2.67;;;22.70;67.20;;;;;;5010093;28;20448;-81
2023/10/29 04:55:47;;;;;;;2.90;2.60;;;22.70;67.20;;;;;;5011463;28;21241;-82
2023/10/29 04:58:16;;;;;;;2.63;2.43;;;22.70;67.20;;;;;;5012152;28;20465;-82
2023/10/29 05:00:44;;;;;;;2.70;2.50;;;22.70;67.30;;;;;;5012515;28;20460;-81
2023/10/29 05:03:13;;;;;;;2.80;2.60;;;22.70;67.30;;;;;;5004182;28;20499;-81
2023/10/29 05:05:41;;;;;;;2.70;2.50;;;22.70;67.30;;;;;;5011595;28;20869;-80
2023/10/29 05:08:09;;;;;;;2.17;2.07;;;22.80;67.20;;;;;;5009218;28;20592;-80
2023/10/29 05:10:38;;;;;;;2.33;2.23;;;22.80;67.20;;;;;;5008168;28;20451;-80
2023/10/29 05:13:06;;;;;;;2.67;2.47;;;22.80;67.20;;;;;;4992509;28;20435;-81
2023/10/29 05:15:35;;;;;;;2.50;2.30;;;22.80;67.10;;;;;;5001342;28;20717;-80
2023/10/29 05:18:04;;;;;;;2.70;2.50;;;22.80;67.10;;;;;;5010579;28;20440;-81
2023/10/29 05:20:32;;;;;;;5.20;2.80;;;22.80;67.10;;;;;;5016396;28;20477;-80
2023/10/29 05:23:00;;;;;;;2.67;2.47;;;22.90;67.00;;;;;;5012589;28;20473;-80
2023/10/29 05:25:30;;;;;;;3.03;2.13;;;22.90;67.00;;;;;;4999121;28;20465;-81
2023/10/29 05:27:58;;;;;;;2.70;2.50;;;22.90;67.00;;;;;;4993097;28;20453;-80
2023/10/29 05:30:26;;;;;;;2.10;1.90;;;22.90;66.90;;;;;;5000818;28;20518;-80
2023/10/29 05:32:56;;;;;;;2.43;2.23;;;22.90;66.80;;;;;;5016889;28;20483;-80
2023/10/29 05:35:24;;;;;;;2.37;2.17;;;23.00;66.70;;;;;;5010130;28;20457;-80
2023/10/29 05:37:53;;;;;;;2.40;2.20;;;23.00;66.60;;;;;;5011617;28;20506;-80
2023/10/29 05:40:21;;;;;;;2.37;2.00;;;23.00;66.50;;;;;;4999743;28;20541;-80
2023/10/29 05:42:49;;;;;;;2.30;2.20;;;23.00;66.50;;;;;;5008637;28;20477;-80
2023/10/29 05:45:17;;;;;;;2.70;2.50;;;23.00;66.40;;;;;;5008132;28;20949;-81
2023/10/29 05:47:45;;;;;;;2.37;2.20;;;23.00;66.40;;;;;;5009226;28;20473;-81
2023/10/29 05:50:15;;;;;;;1.93;1.83;;;23.00;66.30;;;;;;5004760;28;20536;-80
2023/10/29 05:52:46;;;;;;;2.20;2.10;;;23.00;66.30;;;;;;5003647;28;21301;-81
2023/10/29 05:55:14;;;;;;;2.33;2.20;;;23.00;66.30;;;;;;5008051;28;20492;-81
2023/10/29 05:57:42;;;;;;;3.00;2.70;;;23.00;66.30;;;;;;5001319;28;20469;-81
2023/10/29 06:00:12;;;;;;;2.50;2.30;;;23.00;66.30;;;;;;5007438;28;20480;-81
2023/10/29 06:02:40;;;;;;;2.10;2.00;;;22.90;66.40;;;;;;5009758;28;20531;-81
2023/10/29 06:05:09;;;;;;;2.10;2.00;;;22.90;66.40;;;;;;5011737;28;20441;-81
2023/10/29 06:07:42;;;;;;;2.70;2.50;;;22.90;66.40;;;;;;5009903;28;20496;-81
2023/10/29 06:10:13;;;;;;;2.57;2.37;;;22.90;66.40;;;;;;5010189;28;21069;-81
2023/10/29 06:12:42;;;;;;;4.50;2.13;;;22.90;66.40;;;;;;4998275;28;20450;-80
2023/10/29 06:15:12;;;;;;;2.30;2.10;;;22.90;66.50;;;;;;5011242;28;20452;-80
2023/10/29 06:17:41;;;;;;;2.57;2.43;;;22.90;66.50;;;;;;5003749;28;20489;-80
2023/10/29 06:20:16;;;;;;;2.53;2.33;;;22.80;66.50;;;;;;5005369;28;20461;-81
2023/10/29 06:22:47;;;;;;;2.07;1.97;;;22.80;66.50;;;;;;5009908;28;20465;-81
2023/10/29 06:25:16;;;;;;;3.00;2.23;;;22.80;66.50;;;;;;5004172;28;20554;-80
2023/10/29 06:27:45;;;;;;;2.30;2.10;;;22.80;66.60;;;;;;5009687;28;20960;-81
2023/10/29 06:30:13;;;;;;;2.33;2.13;;;22.80;66.60;;;;;;5011244;28;20679;-80
2023/10/29 06:32:42;;;;;;;1.83;1.73;;;22.80;66.60;;;;;;5009658;28;20550;-80
2023/10/29 06:35:11;;;;;;;2.40;2.20;;;22.80;66.60;;;;;;5009488;28;20464;-81
2023/10/29 06:37:40;;;;;;;2.60;2.40;;;22.80;66.60;;;;;;5010864;28;20925;-81
2023/10/29 06:40:10;;;;;;;2.60;2.40;;;22.80;66.70;;;;;;5010566;28;20914;-82
2023/10/29 06:42:39;;;;;;;2.83;2.63;;;22.80;66.70;;;;;;5008136;28;20468;-80
2023/10/29 06:45:09;;;;;;;2.33;2.23;;;22.70;66.70;;;;;;5010656;28;20437;-81
2023/10/29 06:47:38;;;;;;;2.30;2.20;;;22.80;66.70;;;;;;5007480;28;20448;-81
2023/10/29 06:50:07;;;;;;;2.63;2.43;;;22.80;66.70;;;;;;5009974;28;20734;-81
2023/10/29 06:52:36;;;;;;;2.03;1.93;;;22.80;66.70;;;;;;5005904;28;20461;-81
2023/10/29 06:55:06;;;;;;;1.60;1.50;;;22.80;66.60;;;;;;5009337;28;20464;-80
2023/10/29 06:57:36;;;;;;;1.83;1.73;;;22.80;66.60;;;;;;5009282;28;20445;-81
2023/10/29 07:00:05;;;;;;;1.93;1.83;;;22.80;66.50;;;;;;5009208;28;20454;-80
2023/10/29 07:02:36;;;;;;;2.13;2.00;;;22.80;66.50;;;;;;5006816;28;20521;-81
2023/10/29 07:05:05;;;;;;;2.20;2.10;;;22.80;66.50;;;;;;5003055;28;20857;-81
2023/10/29 07:07:34;;;;;;;2.10;2.00;;;22.80;66.50;;;;;;5010227;28;20468;-80
2023/10/29 07:10:03;;;;;;;2.33;2.23;;;22.80;66.40;;;;;;5000128;28;20468;-81
2023/10/29 07:12:32;;;;;;;2.50;2.30;;;22.80;66.40;;;;;;5003855;28;20480;-81
2023/10/29 07:15:02;;;;;;;2.13;2.03;;;22.90;66.40;;;;;;5011128;28;20861;-80
2023/10/29 07:17:30;;;;;;;2.17;1.97;;;22.90;66.30;;;;;;5017502;28;20502;-80
2023/10/29 07:19:59;;;;;;;1.90;1.80;;;22.90;66.30;;;;;;5005335;28;20456;-81
2023/10/29 07:22:27;;;;;;;2.20;2.10;;;22.90;66.30;;;;;;5009688;28;20527;-81
2023/10/29 07:24:55;;;;;;;2.10;2.00;;;22.90;66.30;;;;;;5010417;28;20451;-81
2023/10/29 07:27:23;;;;;;;2.53;2.33;;;22.90;66.20;;;;;;5009930;28;20480;-81
2023/10/29 07:29:52;;;;;;;1.90;1.80;;;22.90;66.20;;;;;;5006756;28;20476;-81
2023/10/29 07:32:22;;;;;;;3.80;2.27;;;22.90;66.20;;;;;;5003801;28;20574;-80
2023/10/29 07:34:50;;;;;;;1.77;1.67;;;22.90;66.20;;;;;;5003096;28;20467;-80
2023/10/29 07:37:19;;;;;;;2.53;2.33;;;22.90;66.10;;;;;;4998933;28;21048;-81
2023/10/29 07:39:47;;;;;;;1.80;1.70;;;22.90;66.10;;;;;;5002941;28;20491;-80
2023/10/29 07:42:16;;;;;;;1.90;1.80;;;22.90;66.10;;;;;;5004373;28;20453;-81
2023/10/29 07:44:44;;;;;;;2.30;2.20;;;22.90;66.00;;;;;;5002578;28;20491;-81
2023/10/29 07:47:13;;;;;;;2.10;1.90;;;22.90;66.00;;;;;;4999052;28;20446;-81
2023/10/29 07:49:42;;;;;;;1.83;1.73;;;22.90;66.00;;;;;;5002303;28;20945;-80
2023/10/29 07:52:11;;;;;;;2.30;2.10;;;22.90;66.00;;;;;;5000951;28;20555;-80
2023/10/29 07:54:42;;;;;;;2.10;2.00;;;22.90;66.00;;;;;;5001187;28;20446;-81
2023/10/29 07:57:10;;;;;;;2.20;2.07;;;22.90;66.00;;;;;;4998209;28;20446;-81
2023/10/29 07:59:38;;;;;;;2.23;2.03;;;22.90;66.00;;;;;;5004844;28;21019;-80
2023/10/29 08:02:06;;;;;;;2.00;1.90;;;22.90;66.00;;;;;;5000478;28;20473;-82
2023/10/29 08:04:35;;;;;;;1.83;1.73;;;22.90;66.00;;;;;;5008454;28;20599;-81
2023/10/29 08:07:07;;;;;;;1.93;1.80;;;22.90;66.00;;;;;;5002939;28;20477;-81
2023/10/29 08:09:35;;;;;;;1.60;1.50;;;22.90;66.00;;;;;;5008587;28;20446;-81
2023/10/29 08:12:04;;;;;;;2.17;2.07;;;22.90;66.00;;;;;;5011229;28;20457;-81
2023/10/29 08:14:33;;;;;;;2.20;2.00;;;22.90;66.00;;;;;;5005961;28;20454;-81
2023/10/29 08:17:01;;;;;;;1.80;1.70;;;22.90;66.00;;;;;;5011383;28;20477;-81
2023/10/29 08:19:29;;;;;;;2.03;1.93;;;22.90;66.00;;;;;;5014006;28;20809;-81
2023/10/29 08:21:58;;;;;;;1.90;1.80;;;22.90;66.00;;;;;;5005979;28;21330;-81
2023/10/29 08:24:28;;;;;;;2.00;1.80;;;22.90;66.00;;;;;;5003987;28;20481;-81
2023/10/29 08:26:56;;;;;;;2.00;1.90;;;23.00;66.00;;;;;;5010133;28;20468;-80
2023/10/29 08:29:24;;;;;;;2.60;2.40;;;23.00;66.00;;;;;;5005002;28;20520;-81
2023/10/29 08:31:53;;;;;;;2.17;2.00;;;23.00;66.00;;;;;;5012599;28;20481;-79
2023/10/29 08:34:21;;;;;;;2.23;2.13;;;22.90;66.00;;;;;;5010119;28;20448;-80
2023/10/29 08:36:49;;;;;;;1.80;1.70;;;23.00;66.10;;;;;;5012263;28;20946;-80
2023/10/29 08:39:21;;;;;;;3.00;1.70;;;23.00;66.00;;;;;;5010388;28;20464;-79
2023/10/29 08:41:51;;;;;;;1.90;1.80;;;23.00;65.80;;;;;;5014804;28;20463;-79
2023/10/29 08:44:20;;;;;;;2.47;2.27;;;23.00;66.00;;;;;;5008450;28;20497;-80
2023/10/29 08:46:48;;;;;;;2.23;2.10;;;23.00;66.00;;;;;;5013815;28;21176;-80
2023/10/29 08:49:17;;;;;;;1.73;1.63;;;23.00;66.00;;;;;;5012458;28;20453;-79
2023/10/29 08:51:45;;;;;;;4.00;2.13;;;23.00;66.00;;;;;;5009311;28;20461;-81
2023/10/29 08:54:13;;;;;;;2.23;2.03;;;23.00;65.90;;;;;;5008197;28;20503;-80
2023/10/29 08:56:42;;;;;;;2.17;2.00;;;23.00;66.00;;;;;;5003852;28;20465;-81
2023/10/29 08:59:11;;;;;;;2.60;2.17;;;23.00;66.00;;;;;;5003672;28;20829;-81
2023/10/29 09:01:40;;;;;;;2.43;2.03;;;23.10;66.00;;;;;;5010297;28;20529;-81
2023/10/29 09:04:10;;;;;;;2.37;2.17;;;23.10;65.80;;;;;;5004851;28;20560;-80
2023/10/29 09:06:38;;;;;;;2.87;2.33;;;23.10;65.80;;;;;;5006552;28;20937;-80
2023/10/29 09:09:07;;;;;;;3.40;1.93;;;23.10;65.70;;;;;;5005709;28;21389;-80
2023/10/29 09:11:36;;;;;;;2.73;2.30;;;23.10;65.70;;;;;;5021757;28;20828;-83
2023/10/29 09:14:07;;;;;;;2.40;2.20;;;23.20;65.60;;;;;;5004326;28;20458;-80
2023/10/29 09:16:37;;;;;;;2.90;2.13;;;23.20;65.80;;;;;;5006239;28;20503;-80
2023/10/29 09:19:06;;;;;;;3.77;2.40;;;23.20;65.70;;;;;;5006982;28;20537;-80
2023/10/29 09:21:34;;;;;;;2.07;1.70;;;23.20;65.70;;;;;;5011739;28;20451;-80
2023/10/29 09:24:03;;;;;;;2.97;2.67;;;23.20;65.60;;;;;;5009559;28;20592;-81
2023/10/29 09:26:32;;;;;;;2.00;1.90;;;23.30;65.60;;;;;;5004052;28;21106;-80
2023/10/29 09:29:01;;;;;;;2.10;1.90;;;23.30;65.50;;;;;;4995788;28;20452;-80
2023/10/29 09:31:30;;;;;;;2.93;2.00;;;23.30;65.50;;;;;;5007473;28;20496;-81
2023/10/29 09:34:00;;;;;;;2.10;1.70;;;23.30;65.50;;;;;;4999911;28;20449;-81
2023/10/29 09:36:29;;;;;;;2.43;2.23;;;23.30;65.50;;;;;;5001515;28;20463;-81
2023/10/29 09:38:57;;;;;;;2.53;2.33;;;23.30;65.50;;;;;;4998850;28;20479;-80
2023/10/29 09:41:26;;;;;;;4.50;2.57;;;23.30;65.50;;;;;;5001045;28;20449;-81
2023/10/29 09:43:55;;;;;;;4.23;2.73;;;23.30;65.50;;;;;;5005741;28;20486;-82
2023/10/29 09:46:24;;;;;;;2.23;2.03;;;23.30;65.50;;;;;;4996425;28;20462;-82
2023/10/29 09:48:54;;;;;;;2.50;2.30;;;23.30;65.50;;;;;;4997477;28;20497;-82
2023/10/29 09:51:25;;;;;;;3.20;2.10;;;23.30;65.40;;;;;;4996061;28;20457;-81
2023/10/29 09:53:57;;;;;;;2.60;2.23;;;23.30;65.50;;;;;;4996307;28;20467;-82
2023/10/29 09:56:29;;;;;;;2.57;2.37;;;23.40;65.40;;;;;;4998891;28;20453;-81
2023/10/29 09:58:58;;;;;;;2.47;2.07;;;23.40;65.40;;;;;;5002633;28;20472;-81
2023/10/29 10:01:27;;;;;;;3.10;2.40;;;23.40;65.60;;;;;;5007726;28;20468;-79
2023/10/29 10:03:55;;;;;;;2.63;2.43;;;23.40;65.40;;;;;;5007571;28;20473;-78
2023/10/29 10:06:26;;;;;;;3.30;2.13;;;23.40;65.50;;;;;;5008722;28;21004;-79
2023/10/29 10:08:57;;;;;;;2.40;2.20;;;23.40;65.40;;;;;;5008482;28;20560;-78
2023/10/29 10:11:26;;;;;;;2.40;2.20;;;23.40;65.40;;;;;;4993885;28;20467;-79
2023/10/29 10:13:55;;;;;;;2.63;2.43;;;23.40;65.50;;;;;;5005338;28;20490;-79
2023/10/29 10:16:26;;;;;;;2.80;2.10;;;23.50;65.50;;;;;;4996081;28;20497;-82
2023/10/29 10:18:57;;;;;;;3.03;2.40;;;23.50;65.50;;;;;;5002527;28;20458;-82
2023/10/29 10:21:41;;;;;;;3.40;2.70;;;23.50;65.50;;;;;;5010131;28;20465;-82
2023/10/29 10:24:10;;;;;;;2.67;2.47;;;23.50;65.50;;;;;;5005341;28;20509;-82
2023/10/29 10:26:40;;;;;;;2.97;2.17;;;23.50;65.60;;;;;;5005171;28;20538;-84
2023/10/29 10:29:10;;;;;;;5.43;2.50;;;23.50;65.60;;;;;;5004014;28;20839;-82
2023/10/29 10:31:38;;;;;;;3.50;2.67;;;23.50;65.60;;;;;;5003698;28;20488;-82
2023/10/29 10:34:13;;;;;;;3.30;2.30;;;23.60;65.60;;;;;;5009622;28;20466;-79
2023/10/29 10:36:44;;;;;;;4.03;2.63;;;23.60;65.60;;;;;;5009461;28;20466;-79
2023/10/29 10:39:13;;;;;;;4.43;3.17;;;23.60;65.60;;;;;;5001967;28;20470;-80
2023/10/29 10:41:44;;;;;;;4.93;3.20;;;23.60;65.90;;;;;;5008454;28;20528;-80
2023/10/29 10:44:14;;;;;;;4.37;3.57;;;23.60;66.80;;;;;;5011645;28;20942;-80
2023/10/29 10:46:47;;;;;;;5.50;2.80;;;23.60;66.90;;;;;;5009930;28;20466;-79
2023/10/29 10:49:16;;;;;;;4.40;3.00;;;23.60;66.70;;;;;;5002233;28;20796;-80
2023/10/29 10:51:48;;;;;;;5.17;3.40;;;23.60;66.50;;;;;;5009710;28;20496;-79
2023/10/29 10:54:18;;;;;;;6.17;3.30;;;23.70;66.40;;;;;;5008772;28;20535;-79
2023/10/29 10:56:50;;;;;;;6.70;3.60;;;23.70;66.50;;;;;;5007881;28;20476;-78
2023/10/29 10:59:20;;;;;;;3.40;2.80;;;23.70;66.40;;;;;;4995896;28;20465;-79
2023/10/29 11:01:49;;;;;;;6.10;3.67;;;23.60;66.30;;;;;;5000326;28;20464;-79
2023/10/29 11:04:18;;;;;;;5.43;3.30;;;23.60;66.40;;;;;;5011024;28;20555;-80
2023/10/29 11:06:49;;;;;;;3.20;2.90;;;23.60;66.30;;;;;;5000691;28;20965;-82
2023/10/29 11:09:21;;;;;;;7.53;3.67;;;23.60;66.30;;;;;;5001243;28;20477;-82
2023/10/29 11:11:54;;;;;;;4.60;3.43;;;23.60;66.50;;;;;;5010718;28;20527;-81
2023/10/29 11:14:24;;;;;;;3.10;2.70;;;23.70;66.40;;;;;;5002927;28;20453;-82
2023/10/29 11:16:55;;;;;;;5.70;2.87;;;23.80;66.10;;;;;;5004548;28;20516;-80
2023/10/29 11:19:45;;;;;;;3.80;2.20;;;23.80;65.70;;;;;;5002410;28;21003;-82
2023/10/29 11:22:27;;;;;;;7.40;3.37;;;23.90;65.40;;;;;;4998859;28;20465;-82
2023/10/29 11:25:39;;;;;;;4.50;2.43;;;23.90;65.40;;;;;;5004007;28;20573;-83
2023/10/29 11:28:38;;;;;;;5.43;3.70;;;23.90;65.40;;;;;;5004936;28;20467;-83
2023/10/29 11:31:17;;;;;;;4.53;2.30;;;23.90;65.40;;;;;;5004701;28;20461;-81
2023/10/29 11:33:47;;;;;;;6.13;3.07;;;23.90;65.70;;;;;;5012543;28;20473;-83
2023/10/29 11:36:32;;;;;;;4.90;2.83;;;23.90;65.90;;;;;;5001369;28;20445;-82
2023/10/29 11:39:33;;;;;;;11.50;2.93;;;23.80;65.70;;;;;;5002164;28;20458;-82
2023/10/29 11:42:25;;;;;;;4.83;2.70;;;23.80;65.70;;;;;;5003358;28;20463;-82
2023/10/29 11:45:27;;;;;;;5.33;3.10;;;23.80;65.90;;;;;;5001693;28;20966;-81
2023/10/29 11:48:15;;;;;;;4.47;2.80;;;23.80;66.10;;;;;;5000441;28;20561;-81
2023/10/29 11:51:22;;;;;;;5.17;2.90;;;24.00;66.10;;;;;;5003000;28;20470;-81
2023/10/29 11:53:51;;;;;;;7.23;2.70;;;24.20;65.80;;;;;;5004122;28;20531;-81
2023/10/29 11:56:28;;;;;;;2.60;2.50;;;24.30;65.20;;;;;;4999615;28;20467;-81
2023/10/29 11:59:06;;;;;;;3.70;2.63;;;24.50;64.90;;;;;;5011437;28;20463;-81
2023/10/29 12:01:36;;;;;;;3.23;2.60;;;24.60;64.60;;;;;;5002563;28;20506;-81
2023/10/29 12:04:09;;;;;;;4.73;2.60;;;24.60;64.50;;;;;;4999407;28;20468;-79
2023/10/29 12:06:43;;;;;;;2.90;2.53;;;24.50;64.80;;;;;;5001820;28;20466;-81
2023/10/29 12:09:21;;;;;;;6.63;3.03;;;24.50;64.80;;;;;;4996715;28;20549;-81
2023/10/29 12:11:53;;;;;;;4.40;2.37;;;24.70;64.40;;;;;;4999230;28;20561;-81
2023/10/29 12:14:39;;;;;;;5.50;2.90;;;24.90;63.90;;;;;;4998892;28;20466;-81
2023/10/29 12:17:08;;;;;;;5.27;2.97;;;25.10;63.60;;;;;;4994624;28;20461;-81
2023/10/29 12:19:36;;;;;;;2.43;2.27;;;25.20;63.00;;;;;;5003075;28;20458;-79
2023/10/29 12:22:14;;;;;;;2.23;2.03;;;25.10;62.90;;;;;;5005587;28;20516;-79
2023/10/29 12:24:43;;;;;;;3.60;2.00;;;25.10;63.00;;;;;;5002850;28;20513;-79
2023/10/29 12:27:13;;;;;;;5.47;2.00;;;25.00;63.20;;;;;;4998655;28;20478;-79
2023/10/29 12:29:42;;;;;;;2.40;2.13;;;25.00;63.20;;;;;;5006800;28;20909;-79
2023/10/29 12:32:16;;;;;;;3.30;1.80;;;25.10;63.00;;;;;;4996535;28;20499;-79
2023/10/29 12:34:49;;;;;;;3.47;2.70;;;25.20;62.70;;;;;;4994780;28;20459;-79
2023/10/29 12:37:22;;;;;;;3.40;2.00;;;25.10;62.70;;;;;;5002174;28;20454;-79
2023/10/29 12:39:51;;;;;;;5.37;1.77;;;25.00;62.90;;;;;;4996370;28;20455;-79
2023/10/29 12:42:22;;;;;;;3.30;2.10;;;24.90;62.90;;;;;;4998485;28;20478;-79
2023/10/29 12:44:54;;;;;;;2.30;1.90;;;24.90;63.00;;;;;;5007112;28;20462;-80
2023/10/29 12:47:23;;;;;;;2.93;2.03;;;24.90;63.10;;;;;;4996655;28;20478;-80
2023/10/29 12:49:59;;;;;;;4.20;2.03;;;24.80;63.00;;;;;;5006443;28;20454;-82
2023/10/29 12:52:31;;;;;;;2.43;1.80;;;24.80;63.30;;;;;;5005331;28;20466;-81
2023/10/29 12:54:59;;;;;;;2.53;2.03;;;24.70;63.40;;;;;;5013096;28;20504;-81
2023/10/29 12:57:29;;;;;;;3.70;2.83;;;24.60;63.50;;;;;;5005468;28;20453;-81
2023/10/29 12:59:57;;;;;;;2.30;2.10;;;24.60;63.70;;;;;;5022976;28;20474;-81
2023/10/29 13:02:27;;;;;;;1.67;1.57;;;24.50;63.80;;;;;;5009815;28;20966;-80